Victoria International Airport
CYYJ : now visible

Airfield :











YOU CAN JOIN US ON...

 
LOGIN :

Register | Disclaimer

   EN    FR    IT 

 









Legend :    VFR   Marginal VFR   IFR   Intensive IFR   Very Intensive IFR
Visi :
Ceiling :
>= 8 km
>= 3000ft
5 to 8 km
1000 to 3000 ft
1500m to 5 km
500 to 1000 ft
800 to 1500m
200 to 500 ft
< 800m
< 200 ft
Symbols :   Thunderstorms  Fog  Heavy snow  Heavy precipitations  Wind > 20 kt






- Airport Elevation : 63 ft
- IATA code : YYJ


CYYJ - Victoria International

CURRENT METAR :
  • 271700Z 14008KT 20SM FEW035 BKN050 BKN230 07/06 A3013 RMK SC1SC4CI1 SLP205

EXPIRED METARs :
  • 271600Z 15008KT 20SM FEW025 FEW051 06/05 A3012 RMK SC1SC2 SC TR SLP201
  • 271500Z 14004KT 20SM FEW025 06/04 A3011 RMK SC1 SLP199

TAF TAF CYYJ
Valid from the 27 at 18:00 until the 28 at 18:00 UTC


271738Z 2718/2818 14008KT P6SM FEW030 SCT050
TEMPO 2718/2724 SCT030 BKN050
FM280000 13012G22KT P6SM -RA SCT012 OVC030
TEMPO 2800/2808 5SM -RA BR SCT006 OVC020
BECMG 2802/2804 12018G28KT
FM280800 16010KT P6SM -SHRA FEW008 SCT015 BKN030
TEMPO 2808/2818 3SM -SHRA BR BKN008 OVC015 RMK NXT FCST BY 280000Z



MET'MAP, your aeronautical weather chart ! - Copyright ORBIFLY December 2007 - Disclaimer

ORBIFLY MET'MAP TEAM :

Programming & Development : Alexandra Zaïnal
Concept & original design : Baudouin d'Aumeries
Assistance for programming : Marc-Olivier Méhu
Technical & hardware support : Manuel Goepfert

Contact : metmap@orbifly.com




SOURCES & CREDITS :

   NOAA       Earth
Advisory